• Join FlightAware (Why Join?)
  • Login
  • US Flag 
06:12PM EDT


 

Airport Tracker/Info


-or-


 

Live Flight TrackerFlight Track Log ✈ CTL14 ✈ 24-Apr-2013 ✈ KBAK - KBMI

Flight Track Log - Related Links

Times and Time Zones

All times are in EDT time to prevent confusion due to time zone crossing. See the CTL14 flight status page for this flight to view local times or setup timezone preferences in your user account.

Time Position Orientation Groundspeed Altitude Reporting Facility
EDT Latitude Longitude Course Direction KTS MPH feet Rate Location/Type
09:14PM 39.2833 -85.9000 360° North 115 132 1,200  Level Indianapolis TRACON
09:15PM 39.2833 -85.9000 360° North 118 136 1,700 1,200 Climbing Indianapolis TRACON
09:16PM 39.3333 -85.9167 346° North 129 148 2,900 1,080 Climbing Indianapolis TRACON
09:17PM 39.3594 -85.9186 357° North 127 146 3,800 540 Climbing Indianapolis Center
09:18PM 39.3997 -85.9342 343° North 144 166 4,000  Climbing Indianapolis Center
09:19PM 39.4317 -85.9756 315° West 158 182 3,900  Descending Indianapolis Center
09:20PM 39.4444 -86.0300 287° West 162 186 4,000  Climbing Indianapolis Center
09:21PM 39.4511 -86.0861 279° West 159 183 3,900 -60 Descending Indianapolis Center
09:22PM 39.4603 -86.1436 282° West 160 184 3,900  Level Indianapolis Center
09:24PM 39.4833 -86.2667 284° West 160 184 4,000  Climbing Indianapolis TRACON
09:25PM 39.4853 -86.3144 273° West 160 184 3,900 -60 Descending Indianapolis Center
09:26PM 39.4925 -86.3719 279° West 160 184 3,900  Level Indianapolis Center
09:27PM 39.5086 -86.4256 291° West 161 185 4,000  Climbing Indianapolis Center
09:28PM 39.5303 -86.4772 299° West 162 186 3,900 -60 Descending Indianapolis Center
09:29PM 39.5506 -86.5297 297° West 161 185 3,900  Level Indianapolis Center
09:30PM 39.5714 -86.5819 297° West 161 185 4,000  Climbing Indianapolis Center
09:31PM 39.5958 -86.6417 298° West 160 184 3,900 -60 Descending Indianapolis Center
09:32PM 39.6175 -86.6936 298° West 161 185 3,900  Level Indianapolis Center
09:33PM 39.6386 -86.7453 298° West 161 185 4,000  Climbing Indianapolis Center
09:34PM 39.6592 -86.7969 297° West 161 185 3,900 -60 Descending Indianapolis Center
09:35PM 39.6797 -86.8492 297° West 161 185 3,900  Level Indianapolis Center
09:36PM 39.7006 -86.9019 297° West 162 186 3,900  Level Indianapolis Center
09:37PM 39.7217 -86.9531 298° West 161 185 3,900  Level Indianapolis Center
09:38PM 39.7419 -87.0056 297° West 161 185 4,000  Climbing Indianapolis Center
09:39PM 39.7633 -87.0578 298° West 161 185 4,000  Level Indianapolis Center
09:40PM 39.7847 -87.1094 298° West 161 185 4,000  Level Indianapolis Center
09:41PM 39.8056 -87.1611 298° West 161 185 4,000  Level Indianapolis Center
09:42PM 39.8258 -87.2139 297° West 162 186 4,000  Level Indianapolis Center
09:43PM 39.8492 -87.2750 296° West 161 185 4,000  Level Indianapolis Center
09:44PM 39.8708 -87.3264 299° West 161 185 4,000 -60 Level Indianapolis Center
09:47PM 39.9158 -87.4403 297° West 161 185 3,900 -60 Descending Chicago Center
09:48PM 39.9361 -87.4936 296° West 162 186 3,900  Level Chicago Center
09:49PM 39.9614 -87.5550 298° West 163 188 4,000 60 Climbing Chicago Center
09:49PM 39.9678 -87.5717 297° West 163 188 4,000  Level Indianapolis Center
09:50PM 39.9872 -87.6203 298° West 162 186 4,000 -60 Level Indianapolis Center
09:52PM 40.0168 -87.6976 297° West  Level FlightAware Approximate
09:52PM 40.0342 -87.7419 297° West 171 197 3,900  Level Chicago Center
09:53PM 40.0558 -87.7908 300° West 155 178 3,900  Level Chicago Center
09:54PM 40.0758 -87.8433 296° West 161 185 4,000  Climbing Chicago Center
09:55PM 40.0967 -87.8994 296° West 160 184 4,000  Level Chicago Center
09:56PM 40.1206 -87.9569 299° West 161 185 4,000 -60 Level Chicago Center
09:57PM 40.1400 -88.0094 296° West 160 184 3,900  Descending Chicago Center
09:58PM 40.1614 -88.0622 298° West 162 186 4,000  Climbing Chicago Center
09:59PM 40.1814 -88.1147 297° West 163 188 4,000 -60 Level Chicago Center
10:00PM 40.2003 -88.1661 296° West 161 185 3,900  Descending Chicago Center
10:01PM 40.2203 -88.2192 296° West 161 185 4,000  Climbing Chicago Center
10:03PM 40.2389 -88.2728 294° West 161 185 4,000  Level Chicago Center
10:04PM 40.2586 -88.3242 297° West 161 185 4,100  Climbing Chicago Center
10:05PM 40.2825 -88.3875 296° West 162 186 4,100 -60 Level Chicago Center
10:06PM 40.3022 -88.4389 297° West 160 184 4,000  Descending Chicago Center
10:07PM 40.3219 -88.4919 296° West 160 184 4,100  Climbing Chicago Center
10:08PM 40.3386 -88.5381 295° West 160 184 4,000 -180 Descending Chicago Center
10:09PM 40.3622 -88.6000 297° West 159 183 3,800 -300 Descending Chicago Center
10:10PM 40.3842 -88.6506 300° West 159 183 3,500 -300 Descending Chicago Center
10:11PM 40.4056 -88.7008 299° West 158 182 3,200 -360 Descending Chicago Center
10:12PM 40.4269 -88.7522 299° West 159 183 2,800 -480 Descending Chicago Center
10:13PM 40.4456 -88.8044 295° West 158 182 2,300 -600 Descending Chicago Center
10:14PM 40.4619 -88.8517 295° West 152 175 1,600 -540 Descending Chicago Center
10:15PM 40.4758 -88.9031 290° West 144 166 1,300 -300 Descending Chicago Center
10:17PM 40.4771 -88.9159 277° West  Level Estimated
10:24PM 40.4771 -88.9159 66° East  Level Estimated
10:25PM 40.4771 -88.9159 66° East  Level Estimated